TimeMST,TemperatureF,Dew PointF,Humidity,Sea Level PressureIn,VisibilityMPH,Wind Direction,Wind SpeedMPH,Gust SpeedMPH,PrecipitationIn,Events,Conditions,WindDirDegrees,DateUTC
12:14 AM,17.6,14.0,86,30.19,10.0,SW,16.1,-,N/A,,Clear,220,2013-02-16 07:14:00
12:34 AM,17.6,14.0,86,30.18,10.0,SW,13.8,-,N/A,,Clear,220,2013-02-16 07:34:00
12:54 AM,19.4,12.2,74,30.18,10.0,SW,12.7,-,N/A,,Clear,220,2013-02-16 07:54:00
1:14 AM,19.4,12.2,74,30.17,10.0,SW,12.7,-,N/A,,Clear,220,2013-02-16 08:14:00
1:34 AM,19.4,12.2,74,30.17,10.0,SW,11.5,-,N/A,,Clear,220,2013-02-16 08:34:00
1:55 AM,19.4,12.2,74,30.17,10.0,SW,11.5,-,N/A,,Clear,220,2013-02-16 08:55:00
2:15 AM,21.2,10.4,63,30.16,10.0,SW,10.4,-,N/A,,Clear,230,2013-02-16 09:15:00
2:35 AM,21.2,10.4,63,30.16,10.0,SW,9.2,-,N/A,,Clear,230,2013-02-16 09:35:00
2:55 AM,23.0,10.4,59,30.15,10.0,SW,9.2,-,N/A,,Clear,230,2013-02-16 09:55:00
3:15 AM,21.2,10.4,63,30.15,10.0,WSW,9.2,-,N/A,,Clear,240,2013-02-16 10:15:00
3:35 AM,17.6,10.4,73,30.15,10.0,West,8.1,-,N/A,,Clear,260,2013-02-16 10:35:00
3:55 AM,19.4,10.4,68,30.15,10.0,West,9.2,-,N/A,,Clear,260,2013-02-16 10:55:00
4:15 AM,19.4,10.4,68,30.14,10.0,West,8.1,-,N/A,,Clear,260,2013-02-16 11:15:00
4:35 AM,19.4,10.4,68,30.13,10.0,West,10.4,-,N/A,,Clear,260,2013-02-16 11:35:00
4:55 AM,21.2,10.4,63,30.13,10.0,West,10.4,-,N/A,,Clear,260,2013-02-16 11:55:00
5:15 AM,21.2,8.6,58,30.13,10.0,West,8.1,-,N/A,,Clear,260,2013-02-16 12:15:00
5:35 AM,21.2,8.6,58,30.13,10.0,West,9.2,-,N/A,,Clear,270,2013-02-16 12:35:00
5:55 AM,19.4,8.6,63,30.13,10.0,West,8.1,-,N/A,,Clear,260,2013-02-16 12:55:00
6:15 AM,21.2,8.6,58,30.13,10.0,West,9.2,-,N/A,,Clear,270,2013-02-16 13:15:00
6:35 AM,21.2,10.4,63,30.14,10.0,West,9.2,-,N/A,,Clear,260,2013-02-16 13:35:00
6:54 AM,24.8,8.6,50,30.13,10.0,WSW,5.8,-,N/A,,Clear,250,2013-02-16 13:54:00
7:15 AM,23.0,10.4,59,30.13,10.0,WSW,6.9,-,N/A,,Clear,250,2013-02-16 14:15:00
7:34 AM,26.6,12.2,55,30.13,10.0,WSW,11.5,-,N/A,,Clear,250,2013-02-16 14:34:00
7:55 AM,30.2,14.0,51,30.13,10.0,West,12.7,-,N/A,,Clear,260,2013-02-16 14:55:00
8:15 AM,33.8,14.0,44,30.13,10.0,West,10.4,-,N/A,,Clear,270,2013-02-16 15:15:00
8:35 AM,35.6,14.0,41,30.13,10.0,West,9.2,-,N/A,,Clear,280,2013-02-16 15:35:00
8:55 AM,37.4,14.0,38,30.13,10.0,West,8.1,-,N/A,,Clear,280,2013-02-16 15:55:00
3:55 PM,46.4,6.8,20,30.07,10.0,North,15.0,18.4,N/A,,Clear,350,2013-02-16 22:55:00
4:15 PM,46.4,5.0,18,30.07,10.0,NNW,16.1,19.6,N/A,,Clear,340,2013-02-16 23:15:00
4:34 PM,46.4,6.8,20,30.07,10.0,NNW,12.7,-,N/A,,Clear,330,2013-02-16 23:34:00
4:55 PM,44.6,6.8,21,30.07,10.0,North,8.1,-,N/A,,Clear,350,2013-02-16 23:55:00
5:14 PM,42.8,8.6,25,30.07,10.0,NNW,9.2,-,N/A,,Clear,340,2013-02-17 00:14:00
5:34 PM,37.4,6.8,28,30.07,10.0,North,4.6,-,N/A,,Clear,10,2013-02-17 00:34:00
5:54 PM,37.4,6.8,28,30.07,10.0,Calm,Calm,-,N/A,,Clear,0,2013-02-17 00:54:00
6:14 PM,33.8,6.8,32,30.07,10.0,WNW,3.5,-,N/A,,Clear,290,2013-02-17 01:14:00
6:34 PM,32.0,8.6,38,30.07,10.0,Calm,Calm,-,N/A,,Clear,0,2013-02-17 01:34:00
6:53 PM,32.0,8.6,38,30.07,10.0,Calm,Calm,-,N/A,,Clear,0,2013-02-17 01:53:00
7:14 PM,33.8,8.6,35,30.07,10.0,West,4.6,-,N/A,,Clear,260,2013-02-17 02:14:00
7:34 PM,33.8,8.6,35,30.06,10.0,WSW,4.6,-,N/A,,Clear,240,2013-02-17 02:34:00
7:54 PM,30.2,10.4,44,30.05,10.0,West,4.6,-,N/A,,Clear,270,2013-02-17 02:54:00
8:14 PM,28.4,10.4,47,30.05,10.0,SSW,9.2,-,N/A,,Clear,200,2013-02-17 03:14:00
8:34 PM,26.6,12.2,55,30.05,10.0,SSW,9.2,-,N/A,,Clear,210,2013-02-17 03:34:00
8:54 PM,26.6,12.2,55,30.04,10.0,SSW,6.9,-,N/A,,Clear,200,2013-02-17 03:54:00
9:14 PM,28.4,12.2,51,30.04,10.0,SSW,10.4,-,N/A,,Clear,210,2013-02-17 04:14:00
9:34 PM,32.0,10.4,41,30.03,10.0,SW,10.4,-,N/A,,Clear,220,2013-02-17 04:34:00
9:54 PM,32.0,8.6,38,30.02,10.0,SW,10.4,-,N/A,,Clear,230,2013-02-17 04:54:00
10:14 PM,32.0,8.6,38,30.02,10.0,SW,11.5,-,N/A,,Clear,220,2013-02-17 05:14:00
10:34 PM,32.0,8.6,38,30.01,10.0,SW,11.5,-,N/A,,Clear,220,2013-02-17 05:34:00
10:54 PM,30.2,8.6,40,30.01,10.0,SW,11.5,-,N/A,,Clear,230,2013-02-17 05:54:00
11:14 PM,32.0,6.8,35,30.01,10.0,SW,11.5,-,N/A,,Clear,230,2013-02-17 06:14:00
11:34 PM,30.2,5.0,34,30.00,10.0,SSW,8.1,-,N/A,,Clear,210,2013-02-17 06:34:00
11:53 PM,30.2,5.0,34,30.00,10.0,SSW,8.1,-,N/A,,Clear,210,2013-02-17 06:53:00